Terminal Aerodrome Forecast
Issued by NWS

Home | Current Version | Previous Version | Text Only | Print | Product List | Glossary On
Versions: 1 2 3 4 5 6 7 8 9 10 11 12 13 14 15 16 17 18 19 20
909
FTUS44 KTSA 230924 AAA
TAFFYV
TAF AMD
KFYV 230924Z 2309/2406 00000KT 4SM BR SKC
      TEMPO 2309/2313 1SM BR
     FM231400 VRB02KT P6SM FEW250
     FM231600 16006KT P6SM SCT050
     FM240100 13003KT P6SM FEW060 FEW250=

USA.gov is the U.S. government's official web portal to all federal, state and local government web resources and services.